Time;durP1;ratioP1;P1;durP2;ratioP2;P2;SDS_P1;SDS_P2;PMS_P1;PMS_P2;Temp;Humidity;BMP_temperature;BMP_pressure;BME280_temperature;BME280_humidity;BME280_pressure;Samples;Min_cycle;Max_cycle;Signal;HPM_P1;HPM_P2
2021/03/19 00:01:50;;;;;;;0.10;0.10;;;;;;;1.69;96.95;100200.55;1798083;78;21802;-47
2021/03/19 00:04:51;;;;;;;1.75;1.42;;;;;;;1.65;97.08;100192.61;1797230;79;21201;-48
2021/03/19 00:07:56;;;;;;;0.42;0.42;;;;;;;1.65;97.08;100192.61;1804867;78;21141;-47
2021/03/19 00:10:58;;;;;;;0.65;0.60;;;;;;;1.66;97.23;100192.11;1799348;78;21153;-48
2021/03/19 00:13:59;;;;;;;0.20;0.20;;;;;;;1.64;97.34;100198.24;1829927;78;21118;-48
2021/03/19 00:17:00;;;;;;;0.15;0.15;;;;;;;1.63;97.42;100197.92;1796628;79;21535;-47
2021/03/19 00:20:02;;;;;;;0.23;0.23;;;;;;;1.63;97.47;100193.38;1799997;78;21107;-48
2021/03/19 00:23:02;;;;;;;0.00;0.00;;;;;;;1.61;97.55;100193.31;1770271;80;21458;-48
2021/03/19 00:26:03;;;;;;;0.10;0.10;;;;;;;1.60;97.69;100184.92;1784791;80;21866;-48
2021/03/19 00:29:03;;;;;;;0.10;0.10;;;;;;;1.60;97.81;100183.05;1795490;78;21115;-48
2021/03/19 00:32:06;;;;;;;0.05;0.05;;;;;;;1.58;97.91;100181.09;1808402;79;21123;-48
2021/03/19 00:35:06;;;;;;;0.28;0.20;;;;;;;1.57;98.00;100180.81;1790819;80;21135;-48
2021/03/19 00:38:08;;;;;;;0.00;0.00;;;;;;;1.58;98.09;100187.83;1790577;80;21181;-48
2021/03/19 00:41:11;;;;;;;0.10;0.10;;;;;;;1.58;98.14;100195.09;1803347;79;21519;-47
2021/03/19 00:44:12;;;;;;;;;;;;;;;1.55;98.25;100180.73;1804215;79;21102;-47
2021/03/19 00:47:12;;;;;;;0.20;0.20;;;;;;;1.54;98.36;100183.96;1813643;78;20253;-48
2021/03/19 00:50:18;;;;;;;0.10;0.10;;;;;;;1.52;98.47;100187.41;1792010;79;21102;-48
2021/03/19 00:53:19;;;;;;;0.25;0.23;;;;;;;1.52;98.57;100183.89;1790791;80;21151;-49
2021/03/19 00:56:20;;;;;;;0.57;0.57;;;;;;;1.51;98.66;100187.12;1822848;78;20996;-48
2021/03/19 00:59:21;;;;;;;0.10;0.10;;;;;;;1.50;98.72;100177.38;1774359;80;21138;-48
2021/03/19 01:02:23;;;;;;;0.03;0.03;;;;;;;1.49;98.82;100181.94;1788378;78;21439;-47
2021/03/19 01:05:34;;;;;;;0.28;0.28;;;;;;;1.47;98.91;100185.91;1823371;78;21456;-48
2021/03/19 01:08:34;;;;;;;0.13;0.13;;;;;;;1.46;99.00;100185.63;1790825;80;21462;-48
2021/03/19 01:11:34;;;;;;;0.03;0.03;;;;;;;1.46;99.04;100185.63;1820122;78;21193;-48
2021/03/19 01:14:36;;;;;;;0.20;0.20;;;;;;;1.45;99.11;100186.66;1823291;78;21569;-49
2021/03/19 01:17:36;;;;;;;0.10;0.10;;;;;;;1.44;99.22;100189.88;1789538;80;21390;-48
2021/03/19 01:20:37;;;;;;;0.00;0.00;;;;;;;1.44;99.31;100190.41;1823257;78;21123;-49
2021/03/19 01:23:37;;;;;;;0.10;0.10;;;;;;;1.44;99.38;100191.75;1789942;80;21442;-48
2021/03/19 01:26:38;;;;;;;0.28;0.28;;;;;;;1.43;99.44;100192.25;1815446;78;21180;-48
2021/03/19 01:29:38;;;;;;;0.10;0.10;;;;;;;1.44;99.55;100193.10;1823446;78;21540;-48
2021/03/19 01:32:39;;;;;;;0.00;0.00;;;;;;;1.44;99.64;100198.48;1778707;80;20970;-48
2021/03/19 01:35:42;;;;;;;0.00;0.00;;;;;;;1.42;99.70;100197.36;1775511;80;21129;-48
2021/03/19 01:38:44;;;;;;;0.08;0.08;;;;;;;1.41;99.78;100194.88;1761016;80;21152;-48
2021/03/19 01:41:44;;;;;;;0.10;0.10;;;;;;;1.41;99.89;100200.27;1784206;80;21139;-48
2021/03/19 01:45:13;;;;;;;0.00;0.00;;;;;;;1.39;99.95;100202.38;1788642;80;21708;-48
2021/03/19 01:49:10;;;;;;;0.10;0.10;;;;;;;1.39;100.00;100206.42;1760741;78;21139;-47
2021/03/19 01:53:06;;;;;;;0.35;0.35;;;;;;;1.36;100.00;100207.69;1811580;78;21399;-48
2021/03/19 01:57:02;;;;;;;0.05;0.05;;;;;;;1.37;100.00;100204.47;1773153;80;21115;-48
2021/03/19 02:00:59;;;;;;;0.57;0.20;;;;;;;1.36;100.00;100213.58;1790912;80;21106;-48
2021/03/19 02:04:55;;;;;;;0.20;0.20;;;;;;;1.33;100.00;100215.38;1791338;78;21135;-47
2021/03/19 02:08:51;;;;;;;0.30;0.30;;;;;;;1.32;100.00;100212.41;1796765;78;21103;-48
2021/03/19 02:12:47;;;;;;;0.00;0.00;;;;;;;1.31;100.00;100216.97;1823316;78;21114;-48
2021/03/19 02:16:42;;;;;;;0.03;0.03;;;;;;;1.31;100.00;100218.81;1790872;80;21138;-48
2021/03/19 02:20:40;;;;;;;0.00;0.00;;;;;;;1.30;100.00;100226.08;1790867;80;21158;-47
2021/03/19 02:24:36;;;;;;;0.10;0.10;;;;;;;1.27;100.00;100220.61;1778697;80;21150;-47
2021/03/19 02:28:32;;;;;;;8.08;0.40;;;;;;;1.27;100.00;100220.61;1790622;78;21106;-48
2021/03/19 02:32:06;;;;;;;0.00;0.00;;;;;;;1.27;100.00;100224.66;1793568;78;21574;-48
2021/03/19 02:35:17;;;;;;;0.00;0.00;;;;;;;1.25;100.00;100221.36;1791097;80;21149;-48
2021/03/19 02:38:17;;;;;;;0.10;0.10;;;;;;;1.26;100.00;100223.02;1799844;78;21533;-48
2021/03/19 02:41:18;;;;;;;0.20;0.20;;;;;;;1.28;100.00;100228.98;1791423;79;21189;-48
2021/03/19 02:44:19;;;;;;;0.30;0.30;;;;;;;1.28;100.00;100230.32;1791462;80;21142;-48
2021/03/19 02:47:20;;;;;;;0.10;0.10;;;;;;;1.28;100.00;100226.28;1804785;78;21083;-48
2021/03/19 02:50:23;;;;;;;0.20;0.20;;;;;;;1.30;100.00;100231.45;1820546;78;21138;-47
2021/03/19 02:53:33;;;;;;;0.10;0.10;;;;;;;1.32;100.00;100233.41;1791722;78;21043;-48
2021/03/19 02:56:33;;;;;;;0.10;0.10;;;;;;;1.33;100.00;100234.22;1787672;80;21154;-48
2021/03/19 02:59:34;;;;;;;1.50;0.25;;;;;;;1.33;100.00;100239.08;1787085;80;21119;-47
2021/03/19 03:02:35;;;;;;;0.00;0.00;;;;;;;1.34;100.00;100235.36;1804399;78;21419;-48
2021/03/19 03:05:36;;;;;;;0.20;0.20;;;;;;;1.34;100.00;100242.62;1787909;80;21166;-48
2021/03/19 03:08:37;;;;;;;0.23;0.23;;;;;;;1.34;100.00;100236.70;1818351;78;21138;-47
2021/03/19 03:11:39;;;;;;;0.00;0.00;;;;;;;1.36;100.00;100241.34;1817658;78;21190;-48
2021/03/19 03:14:39;;;;;;;0.00;0.00;;;;;;;1.36;100.00;100243.19;1745934;82;21129;-48
2021/03/19 03:17:41;;;;;;;0.00;0.00;;;;;;;1.36;100.00;100241.84;1769085;79;21443;-47
2021/03/19 03:20:50;;;;;;;0.55;0.50;;;;;;;1.36;100.00;100242.70;1768808;81;21139;-47
2021/03/19 03:23:51;;;;;;;0.20;0.20;;;;;;;1.38;100.00;100242.45;1814062;79;21173;-47
2021/03/19 03:26:51;;;;;;;0.10;0.10;;;;;;;1.37;100.00;100247.55;1814263;79;21222;-47
2021/03/19 03:29:51;;;;;;;1.12;1.12;;;;;;;1.36;100.00;100249.92;1814740;78;21213;-48
2021/03/19 03:32:53;;;;;;;0.00;0.00;;;;;;;1.35;100.00;100247.77;1812565;78;21155;-48
2021/03/19 03:35:54;;;;;;;0.35;0.35;;;;;;;1.33;100.00;100252.54;1815330;79;21119;-48
2021/03/19 03:38:54;;;;;;;0.10;0.10;;;;;;;1.33;100.00;100247.69;1789897;79;21546;-48
2021/03/19 03:41:55;;;;;;;0.98;0.72;;;;;;;1.32;100.00;100242.02;1760454;80;21174;-48
2021/03/19 03:44:56;;;;;;;0.85;0.80;;;;;;;1.33;100.00;100251.73;1760148;81;21147;-48
2021/03/19 03:47:56;;;;;;;0.30;0.30;;;;;;;1.30;100.00;100258.38;1781028;80;21119;-48
2021/03/19 03:50:56;;;;;;;0.80;0.75;;;;;;;1.27;100.00;100254.80;1777389;79;21170;-48
2021/03/19 03:53:57;;;;;;;0.53;0.35;;;;;;;1.28;100.00;100257.77;1762413;81;21043;-48
2021/03/19 03:56:57;;;;;;;0.00;0.00;;;;;;;1.27;100.00;100262.34;1753453;80;21310;-47
2021/03/19 03:59:58;;;;;;;0.10;0.10;;;;;;;1.25;100.00;100264.42;1736983;81;21151;-47
2021/03/19 04:02:58;;;;;;;0.20;0.10;;;;;;;1.24;100.00;100262.80;1765121;80;21162;-47
2021/03/19 04:05:59;;;;;;;0.00;0.00;;;;;;;1.24;100.00;100263.32;1760731;80;21201;-47
2021/03/19 04:08:59;;;;;;;1.75;1.20;;;;;;;1.24;100.00;100266.83;1766916;80;21166;-47
2021/03/19 04:12:01;;;;;;;0.37;0.37;;;;;;;1.21;100.00;100269.97;1769877;80;21442;-45
2021/03/19 04:15:02;;;;;;;0.90;0.53;;;;;;;1.20;100.00;100266.97;1767013;80;21111;-47
2021/03/19 04:18:04;;;;;;;0.13;0.13;;;;;;;1.19;100.00;100269.89;1758585;80;21130;-45
2021/03/19 04:21:07;;;;;;;0.28;0.28;;;;;;;1.17;100.00;100267.41;1760114;80;21186;-47
2021/03/19 04:24:07;;;;;;;0.10;0.10;;;;;;;1.17;100.00;100270.11;1754176;81;21189;-48
2021/03/19 04:27:09;;;;;;;0.20;0.20;;;;;;;1.19;100.00;100268.02;1753108;80;21277;-45
2021/03/19 04:30:11;;;;;;;0.10;0.10;;;;;;;1.18;100.00;100275.78;1750553;81;21605;-45
2021/03/19 04:33:17;;;;;;;0.75;0.10;;;;;;;1.17;100.00;100275.49;1753794;80;21130;-48
2021/03/19 04:36:45;;;;;;;0.08;0.08;;;;;;;1.19;100.00;100278.79;1793852;80;21130;-45
2021/03/19 04:39:45;;;;;;;0.35;0.35;;;;;;;1.20;100.00;100272.34;1784283;80;21135;-45
2021/03/19 04:42:46;;;;;;;0.00;0.00;;;;;;;1.21;100.00;100277.20;1755849;80;21150;-46
2021/03/19 04:45:48;;;;;;;0.10;0.10;;;;;;;1.22;100.00;100283.72;1753904;81;21442;-46
2021/03/19 04:48:49;;;;;;;0.10;0.10;;;;;;;1.25;100.00;100279.23;1754354;81;21166;-46
2021/03/19 04:51:50;;;;;;;0.15;0.15;;;;;;;1.27;100.00;100281.19;1767997;79;21177;-45
2021/03/19 04:54:50;;;;;;;0.20;0.20;;;;;;;1.29;100.00;100280.45;1782071;79;21147;-48
2021/03/19 04:57:51;;;;;;;0.10;0.10;;;;;;;1.32;100.00;100285.91;1809334;78;21145;-49
2021/03/19 05:00:51;;;;;;;0.13;0.13;;;;;;;1.36;100.00;100286.27;1823688;78;21122;-46
2021/03/19 05:03:51;;;;;;;0.17;0.17;;;;;;;1.38;100.00;100281.48;1822866;78;21146;-49
2021/03/19 05:06:54;;;;;;;0.10;0.10;;;;;;;1.42;100.00;100278.66;1768121;78;21186;-48
2021/03/19 05:09:54;;;;;;;0.80;0.42;;;;;;;1.45;100.00;100282.25;1762480;79;21148;-49
2021/03/19 05:12:54;;;;;;;1.57;0.50;;;;;;;1.46;100.00;100282.04;1780056;79;21103;-49
2021/03/19 05:15:57;;;;;;;2.07;0.30;;;;;;;1.51;100.00;100286.75;1823218;78;21103;-49
2021/03/19 05:18:57;;;;;;;0.15;0.15;;;;;;;1.56;100.00;100283.36;1790613;79;21473;-50
2021/03/19 05:21:59;;;;;;;0.00;0.00;;;;;;;1.59;100.00;100289.67;1787564;80;21158;-49
2021/03/19 05:24:59;;;;;;;3.62;0.65;;;;;;;1.63;100.00;100291.70;1808166;78;21168;-46
2021/03/19 05:28:00;;;;;;;0.62;0.62;;;;;;;1.68;100.00;100298.58;1775972;80;21125;-50
2021/03/19 05:31:01;;;;;;;0.15;0.15;;;;;;;1.69;100.00;100296.17;1774054;79;21130;-46
2021/03/19 05:34:01;;;;;;;0.20;0.20;;;;;;;1.70;100.00;100299.16;1793896;79;20988;-48
2021/03/19 05:37:01;;;;;;;0.10;0.10;;;;;;;1.72;100.00;100300.29;1788740;79;21200;-49
2021/03/19 05:40:02;;;;;;;0.23;0.23;;;;;;;1.74;100.00;100304.12;1777358;79;21449;-48
2021/03/19 05:43:02;;;;;;;0.85;0.45;;;;;;;1.75;100.00;100314.65;1793009;79;21498;-49
2021/03/19 05:46:11;;;;;;;0.78;0.78;;;;;;;1.77;100.00;100312.56;1735441;80;21151;-49
2021/03/19 05:49:25;;;;;;;0.00;0.00;;;;;;;1.78;100.00;100312.03;1789051;79;21426;-45
2021/03/19 05:52:34;;;;;;;0.00;0.00;;;;;;;1.79;100.00;100309.13;1787777;78;21017;-46
2021/03/19 05:55:39;;;;;;;2.15;0.93;;;;;;;1.80;100.00;100319.38;1790670;78;21016;-49
2021/03/19 05:58:39;;;;;;;0.35;0.25;;;;;;;1.87;100.00;100324.98;1777396;79;21105;-46
2021/03/19 06:01:43;;;;;;;2.55;0.50;;;;;;;1.92;100.00;100325.13;1765261;80;21131;-46
2021/03/19 06:04:45;;;;;;;0.68;0.40;;;;;;;1.97;100.00;100328.49;1778483;79;21139;-46
2021/03/19 06:08:01;;;;;;;0.00;0.00;;;;;;;2.03;100.00;100327.61;1761412;80;21204;-50
2021/03/19 06:11:16;;;;;;;0.23;0.23;;;;;;;2.13;100.00;100325.20;1763542;79;21159;-50
2021/03/19 06:14:21;;;;;;;0.20;0.20;;;;;;;2.22;100.00;100326.22;1774715;80;21206;-49
2021/03/19 06:17:37;;;;;;;1.05;0.55;;;;;;;2.30;100.00;100331.30;1747658;80;21569;-49
2021/03/19 06:20:37;;;;;;;0.53;0.40;;;;;;;2.32;100.00;100330.02;1769702;79;21118;-49
2021/03/19 06:23:37;;;;;;;0.03;0.03;;;;;;;2.37;100.00;100332.03;1748423;80;21187;-46
2021/03/19 06:26:42;;;;;;;0.28;0.28;;;;;;;2.47;100.00;100332.30;1738409;81;21117;-46
2021/03/19 06:29:52;;;;;;;0.10;0.10;;;;;;;2.55;100.00;100329.30;1749963;79;21162;-46
2021/03/19 06:33:18;;;;;;;0.28;0.28;;;;;;;2.64;100.00;100327.62;1768904;80;20987;-46
2021/03/19 06:36:26;;;;;;;0.00;0.00;;;;;;;2.75;100.00;100326.84;1737834;80;21160;-46
2021/03/19 06:39:56;;;;;;;0.10;0.10;;;;;;;2.85;100.00;100328.98;1736451;82;21072;-49
2021/03/19 06:42:57;;;;;;;0.80;0.60;;;;;;;2.86;100.00;100330.08;1759043;80;21028;-46
2021/03/19 06:46:20;;;;;;;0.45;0.45;;;;;;;2.84;100.00;100335.41;1771359;79;21145;-48
2021/03/19 06:49:24;;;;;;;0.00;0.00;;;;;;;2.83;100.00;100336.48;1771151;81;21125;-45
2021/03/19 06:52:34;;;;;;;0.17;0.17;;;;;;;2.84;100.00;100334.06;1773307;80;21576;-46
2021/03/19 06:55:45;;;;;;;0.70;0.53;;;;;;;2.87;100.00;100339.84;1769656;80;21066;-48
2021/03/19 06:58:49;;;;;;;0.47;0.47;;;;;;;2.90;100.00;100343.42;1771404;80;21161;-46
2021/03/19 07:01:51;;;;;;;0.62;0.62;;;;;;;2.89;100.00;100341.75;1769912;80;21149;-45
2021/03/19 07:05:04;;;;;;;0.10;0.10;;;;;;;2.90;100.00;100346.12;1787085;80;21209;-47
2021/03/19 07:08:39;;;;;;;0.10;0.10;;;;;;;2.94;100.00;100350.02;1739347;81;21127;-46
2021/03/19 07:12:07;;;;;;;0.65;0.30;;;;;;;2.96;100.00;100350.58;1762598;81;21454;-48
2021/03/19 07:15:36;;;;;;;0.10;0.10;;;;;;;2.97;100.00;100347.38;1768354;80;21636;-48
2021/03/19 07:19:04;;;;;;;0.85;0.78;;;;;;;2.97;100.00;100345.49;1752917;80;21551;-45
2021/03/19 07:22:50;;;;;;;1.12;0.90;;;;;;;3.01;100.00;100354.75;1771875;80;21129;-45
2021/03/19 07:26:19;;;;;;;0.15;0.15;;;;;;;3.03;100.00;100357.23;1771936;80;21147;-45
2021/03/19 07:29:40;;;;;;;2.20;1.22;;;;;;;3.05;100.00;100352.96;1773937;80;21190;-45
2021/03/19 07:33:03;;;;;;;0.00;0.00;;;;;;;3.11;100.00;100358.77;1763452;81;21569;-45
2021/03/19 07:36:27;;;;;;;0.10;0.10;;;;;;;3.16;100.00;100354.84;1763521;80;21126;-48
2021/03/19 07:39:51;;;;;;;0.10;0.10;;;;;;;3.20;100.00;100355.50;1787518;80;21146;-45
2021/03/19 07:43:15;;;;;;;0.00;0.00;;;;;;;3.23;100.00;100352.86;1763948;81;21145;-45
2021/03/19 07:46:28;;;;;;;0.20;0.20;;;;;;;3.28;100.00;100357.03;1764186;81;21559;-45
2021/03/19 07:50:04;;;;;;;0.72;0.72;;;;;;;3.29;100.00;100361.39;1763910;81;21190;-45
2021/03/19 07:53:52;;;;;;;0.30;0.30;;;;;;;3.30;100.00;100356.27;1764264;79;21178;-45
2021/03/19 07:57:02;;;;;;;1.35;0.55;;;;;;;3.41;100.00;100358.68;1769531;79;21143;-47
2021/03/19 08:00:24;;;;;;;0.00;0.00;;;;;;;3.51;100.00;100358.09;1778988;79;21123;-45
2021/03/19 08:03:31;;;;;;;0.00;0.00;;;;;;;3.54;100.00;100361.70;1794767;79;21647;-45
2021/03/19 08:06:39;;;;;;;0.68;0.68;;;;;;;3.65;99.69;100362.21;1761728;80;21138;-45
2021/03/19 08:09:48;;;;;;;0.68;0.20;;;;;;;3.75;99.29;100363.78;1799476;78;21158;-45
2021/03/19 08:13:10;;;;;;;1.20;0.82;;;;;;;3.80;98.04;100361.20;1788882;80;21107;-45
2021/03/19 08:16:19;;;;;;;2.30;0.57;;;;;;;3.82;97.74;100364.48;1788577;80;21146;-45
2021/03/19 08:19:40;;;;;;;0.37;0.23;;;;;;;3.87;97.35;100369.19;1787110;80;21169;-45
2021/03/19 08:23:11;;;;;;;0.98;0.55;;;;;;;3.92;96.85;100367.13;1784694;80;20980;-45
2021/03/19 08:26:11;;;;;;;0.00;0.00;;;;;;;3.97;96.46;100367.23;1788178;79;21564;-46
2021/03/19 08:29:52;;;;;;;0.65;0.65;;;;;;;4.00;95.84;100370.81;1768490;79;21169;-46
2021/03/19 08:33:21;;;;;;;0.17;0.17;;;;;;;4.05;95.54;100371.73;1777711;79;21143;-45
2021/03/19 08:36:59;;;;;;;0.57;0.57;;;;;;;4.13;95.07;100369.22;1763356;81;21552;-45
2021/03/19 08:40:01;;;;;;;0.10;0.10;;;;;;;4.20;94.79;100371.77;1763886;79;21586;-45
2021/03/19 08:43:01;;;;;;;1.10;0.55;;;;;;;4.24;94.20;100368.88;1764953;79;21477;-45
2021/03/19 08:46:06;;;;;;;1.00;0.57;;;;;;;4.26;94.35;100375.70;1768693;80;21138;-45
2021/03/19 08:49:31;;;;;;;0.10;0.10;;;;;;;4.28;93.79;100372.23;1778604;80;21123;-46
2021/03/19 08:52:44;;;;;;;0.93;0.23;;;;;;;4.31;93.60;100373.09;1792243;78;21736;-45
2021/03/19 08:55:45;;;;;;;1.25;0.45;;;;;;;4.38;93.33;100373.50;1755194;80;21127;-45
2021/03/19 08:58:56;;;;;;;0.10;0.10;;;;;;;4.36;92.51;100371.56;1809271;79;21159;-45
2021/03/19 09:02:03;;;;;;;0.55;0.55;;;;;;;4.35;92.37;100375.31;1796012;79;21155;-45
2021/03/19 09:05:14;;;;;;;0.35;0.35;;;;;;;4.41;92.45;100377.08;1792656;79;21170;-45
2021/03/19 09:08:32;;;;;;;0.40;0.30;;;;;;;4.52;92.44;100377.55;1786647;80;21162;-45
2021/03/19 09:11:51;;;;;;;0.85;0.85;;;;;;;4.54;90.92;100380.84;1819452;78;21136;-45
2021/03/19 09:14:55;;;;;;;0.08;0.08;;;;;;;4.53;91.17;100384.62;1756384;80;21304;-45
2021/03/19 09:18:07;;;;;;;0.23;0.13;;;;;;;4.59;90.84;100379.58;1785173;79;21099;-44
2021/03/19 09:21:17;;;;;;;0.25;0.25;;;;;;;4.60;90.18;100378.54;1787260;80;21159;-45
2021/03/19 09:24:26;;;;;;;0.20;0.20;;;;;;;4.67;90.14;100377.86;1819354;78;21134;-46
2021/03/19 09:27:38;;;;;;;0.10;0.10;;;;;;;4.69;89.45;100382.48;1787223;80;21557;-44
2021/03/19 09:31:00;;;;;;;0.23;0.10;;;;;;;4.72;89.36;100383.37;1787088;80;21183;-45
2021/03/19 09:34:09;;;;;;;0.00;0.00;;;;;;;4.77;88.83;100384.51;1775506;80;21212;-45
2021/03/19 09:37:20;;;;;;;0.20;0.20;;;;;;;4.69;88.76;100388.43;1777695;80;21135;-45
2021/03/19 09:41:01;;;;;;;0.20;0.20;;;;;;;4.69;89.10;100384.37;1791624;80;21163;-46
2021/03/19 09:44:01;;;;;;;0.00;0.00;;;;;;;4.74;89.01;100385.28;1724158;81;21248;-47
2021/03/19 09:47:06;;;;;;;0.25;0.25;;;;;;;4.79;88.85;100387.27;1760823;80;21140;-47
2021/03/19 09:50:19;;;;;;;0.10;0.10;;;;;;;4.86;89.14;100393.89;1791633;80;21572;-47
2021/03/19 09:53:27;;;;;;;0.10;0.10;;;;;;;4.96;89.42;100387.30;1786816;79;21565;-44
2021/03/19 09:56:32;;;;;;;0.00;0.00;;;;;;;5.16;89.45;100382.23;1776544;80;21147;-47
2021/03/19 09:59:35;;;;;;;0.13;0.13;;;;;;;5.32;88.34;100385.22;1737919;80;21183;-44
2021/03/19 10:02:42;;;;;;;0.05;0.05;;;;;;;5.37;87.07;100382.59;1774580;80;21123;-45
2021/03/19 10:05:49;;;;;;;0.25;0.25;;;;;;;5.41;86.21;100383.72;1776685;80;21158;-47
2021/03/19 10:08:49;;;;;;;0.10;0.10;;;;;;;5.53;85.68;100383.64;1741059;80;21189;-47
2021/03/19 10:12:18;;;;;;;0.53;0.53;;;;;;;5.58;85.15;100391.30;1732688;82;21221;-44
2021/03/19 10:15:28;;;;;;;0.98;0.75;;;;;;;5.64;84.83;100388.16;1741176;80;21113;-47
2021/03/19 10:18:39;;;;;;;0.90;0.35;;;;;;;5.74;85.08;100382.07;1776250;80;21178;-45
2021/03/19 10:21:46;;;;;;;0.33;0.33;;;;;;;5.81;84.47;100382.69;1776248;80;21156;-45
2021/03/19 10:24:47;;;;;;;0.23;0.23;;;;;;;5.81;82.65;100386.24;1784101;80;21154;-44
2021/03/19 10:27:52;;;;;;;0.23;0.23;;;;;;;5.77;82.86;100382.38;1784083;80;21166;-45
2021/03/19 10:31:03;;;;;;;0.55;0.15;;;;;;;5.77;82.54;100386.45;1777050;80;21143;-45
2021/03/19 10:34:08;;;;;;;1.02;0.40;;;;;;;5.67;82.37;100386.84;1753562;81;21126;-45
2021/03/19 10:37:44;;;;;;;0.82;0.82;;;;;;;5.60;82.64;100385.64;1754238;80;21703;-44
2021/03/19 10:40:45;;;;;;;1.45;0.30;;;;;;;5.54;83.07;100391.53;1765818;80;21147;-47
2021/03/19 10:44:14;;;;;;;0.17;0.17;;;;;;;5.46;83.89;100383.80;1739274;81;21220;-46
2021/03/19 10:47:32;;;;;;;0.30;0.30;;;;;;;5.36;84.45;100382.28;1754053;80;21617;-46
2021/03/19 10:50:38;;;;;;;0.30;0.30;;;;;;;5.20;85.66;100385.83;1753655;81;21162;-45
2021/03/19 10:54:22;;;;;;;2.50;0.40;;;;;;;5.09;86.33;100382.91;1766469;80;21162;-49
2021/03/19 10:57:35;;;;;;;;;;;;;;;4.94;87.23;100386.72;1788133;80;21138;-49
2021/03/19 11:00:46;;;;;;;0.10;0.10;;;;;;;4.86;88.56;100382.52;1776261;79;20255;-46
2021/03/19 11:03:50;;;;;;;0.23;0.23;;;;;;;4.78;88.96;100380.75;1771957;80;21007;-46
2021/03/19 11:06:53;;;;;;;0.57;0.53;;;;;;;4.61;89.43;100380.70;1772112;80;21576;-49
2021/03/19 11:10:20;;;;;;;1.30;1.20;;;;;;;4.53;89.75;100380.56;1786070;79;21698;-47
2021/03/19 11:13:28;;;;;;;0.25;0.25;;;;;;;4.47;90.32;100380.16;1771260;80;21131;-50
2021/03/19 11:16:44;;;;;;;0.70;0.70;;;;;;;4.47;90.75;100381.51;1781631;79;21196;-51
2021/03/19 11:20:06;;;;;;;0.00;0.00;;;;;;;4.50;91.26;100378.31;1793538;79;21303;-50
2021/03/19 11:23:06;;;;;;;0.93;0.72;;;;;;;4.50;92.35;100379.66;1804195;79;21154;-45
2021/03/19 11:26:07;;;;;;;0.93;0.93;;;;;;;4.64;93.75;100374.27;1804030;79;21123;-47
2021/03/19 11:29:30;;;;;;;0.10;0.10;;;;;;;4.84;94.57;100375.70;1777822;79;21149;-50
2021/03/19 11:32:35;;;;;;;2.25;1.05;;;;;;;5.03;95.23;100377.14;1804100;79;21477;-49
2021/03/19 11:35:35;;;;;;;0.53;0.53;;;;;;;5.18;95.32;100370.62;1790939;79;21193;-45
2021/03/19 11:38:43;;;;;;;1.20;0.72;;;;;;;5.28;95.38;100374.03;1756829;80;21171;-47
2021/03/19 11:41:46;;;;;;;0.28;0.28;;;;;;;5.34;95.06;100374.42;1768836;81;21593;-50
2021/03/19 11:44:47;;;;;;;1.60;0.40;;;;;;;5.37;94.30;100377.17;1769340;81;21262;-49
2021/03/19 11:48:07;;;;;;;2.70;1.05;;;;;;;5.31;93.69;100378.14;1769328;79;21146;-46
2021/03/19 11:51:34;;;;;;;0.88;0.88;;;;;;;5.21;92.79;100377.97;1784493;79;21145;-49
2021/03/19 11:54:34;;;;;;;0.20;0.20;;;;;;;5.04;92.29;100380.13;1778670;79;21566;-45
2021/03/19 11:57:34;;;;;;;0.45;0.45;;;;;;;4.99;92.45;100375.97;1768339;81;21150;-45
2021/03/19 12:00:38;;;;;;;0.68;0.68;;;;;;;5.01;91.93;100376.55;1768312;81;21640;-45
2021/03/19 12:03:52;;;;;;;0.72;0.72;;;;;;;4.96;92.55;100376.47;1767441;81;21151;-45
2021/03/19 12:06:53;;;;;;;0.08;0.08;;;;;;;4.95;92.36;100379.72;1765392;80;21181;-46
2021/03/19 12:09:57;;;;;;;0.37;0.37;;;;;;;4.90;92.31;100381.52;1758474;81;21134;-45
2021/03/19 12:12:57;;;;;;;0.10;0.10;;;;;;;4.85;92.39;100381.44;1720363;83;21940;-45
2021/03/19 12:15:58;;;;;;;1.17;0.50;;;;;;;4.83;92.43;100383.55;1749352;81;21104;-45
2021/03/19 12:19:00;;;;;;;1.95;0.47;;;;;;;4.76;92.19;100385.05;1771595;81;21930;-48
2021/03/19 12:22:01;;;;;;;0.20;0.20;;;;;;;4.65;92.39;100388.11;1753547;81;21011;-49
2021/03/19 12:25:02;;;;;;;0.10;0.10;;;;;;;4.58;92.75;100395.55;1759642;80;21130;-49
2021/03/19 12:28:03;;;;;;;0.45;0.45;;;;;;;4.53;93.04;100397.61;1726900;83;21673;-46
2021/03/19 12:31:03;;;;;;;0.25;0.20;;;;;;;4.44;92.84;100399.58;1761901;81;21175;-48
2021/03/19 12:34:04;;;;;;;0.13;0.13;;;;;;;4.35;93.14;100407.23;1763295;81;21534;-46
2021/03/19 12:37:04;;;;;;;0.23;0.23;;;;;;;4.23;93.30;100410.53;1762720;81;21498;-48
2021/03/19 12:40:05;;;;;;;0.17;0.17;;;;;;;4.06;93.00;100416.66;1762599;81;21649;-53
2021/03/19 12:43:05;;;;;;;0.10;0.10;;;;;;;3.79;92.71;100415.51;1762432;81;21115;-56
2021/03/19 12:46:06;;;;;;;0.45;0.20;;;;;;;3.52;92.77;100421.89;1755063;81;21150;-53
2021/03/19 12:49:06;;;;;;;0.72;0.47;;;;;;;3.31;93.12;100421.38;1758204;81;21550;-56
2021/03/19 12:52:07;;;;;;;0.55;0.55;;;;;;;3.14;93.57;100421.75;1750963;81;21154;-53
2021/03/19 12:55:07;;;;;;;1.55;1.05;;;;;;;2.97;94.02;100422.95;1747777;81;21175;-52
2021/03/19 12:58:09;;;;;;;0.10;0.10;;;;;;;2.86;94.54;100427.24;1765047;80;21465;-52
2021/03/19 13:01:09;;;;;;;1.55;1.45;;;;;;;2.77;95.07;100427.28;1771437;80;21557;-55
2021/03/19 13:04:11;;;;;;;1.98;1.10;;;;;;;2.71;95.63;100437.63;1760297;81;22111;-55
2021/03/19 13:07:12;;;;;;;0.10;0.10;;;;;;;2.66;96.24;100436.14;1780078;79;21573;-53
2021/03/19 13:10:13;;;;;;;0.17;0.17;;;;;;;2.65;96.75;100438.02;1795197;79;21114;-55
2021/03/19 13:13:14;;;;;;;0.10;0.10;;;;;;;2.64;97.23;100432.84;1793606;79;21158;-55
2021/03/19 13:16:15;;;;;;;0.00;0.00;;;;;;;2.64;97.86;100427.45;1790733;79;21091;-55
2021/03/19 13:19:17;;;;;;;0.03;0.03;;;;;;;2.64;98.19;100435.53;1761486;80;21206;-52
2021/03/19 13:22:17;;;;;;;0.30;0.30;;;;;;;2.64;98.53;100432.84;1760414;81;21202;-51
2021/03/19 13:25:23;;;;;;;0.72;0.72;;;;;;;2.63;98.91;100429.33;1777058;79;21122;-53
2021/03/19 13:28:23;;;;;;;0.60;0.60;;;;;;;2.61;99.23;100426.56;1795282;79;21541;-55
2021/03/19 13:31:25;;;;;;;0.88;0.88;;;;;;;2.59;99.58;100431.64;1760511;81;21508;-55
2021/03/19 13:34:25;;;;;;;0.53;0.53;;;;;;;2.59;99.84;100428.13;1784839;80;21158;-55
2021/03/19 13:37:25;;;;;;;1.15;1.05;;;;;;;2.58;100.00;100431.35;1791817;80;21162;-53
2021/03/19 13:40:29;;;;;;;1.17;1.17;;;;;;;2.57;100.00;100429.72;1792163;80;21628;-54
2021/03/19 13:43:35;;;;;;;0.10;0.10;;;;;;;2.59;100.00;100433.52;1787759;80;21134;-53
2021/03/19 13:46:34;;;;;;;0.10;0.10;;;;;;;2.56;100.00;100430.75;1779844;80;21111;-58
2021/03/19 13:49:37;;;;;;;0.25;0.25;;;;;;;2.49;100.00;100431.88;1761026;80;21130;-58
2021/03/19 13:52:41;;;;;;;0.10;0.10;;;;;;;2.45;100.00;100432.88;1782744;79;21541;-56
2021/03/19 13:55:42;;;;;;;1.35;0.53;;;;;;;2.49;100.00;100438.62;1790477;80;21530;-58
2021/03/19 13:58:42;;;;;;;0.25;0.25;;;;;;;2.48;100.00;100428.90;1791927;80;21454;-59
2021/03/19 14:01:42;;;;;;;0.40;0.40;;;;;;;2.47;100.00;100438.84;1790443;80;21126;-57
2021/03/19 14:04:44;;;;;;;0.10;0.10;;;;;;;2.45;100.00;100444.16;1780012;80;21501;-57
2021/03/19 14:07:44;;;;;;;0.10;0.10;;;;;;;2.37;100.00;100445.30;1765670;80;21139;-56
2021/03/19 14:10:46;;;;;;;0.00;0.00;;;;;;;2.37;100.00;100441.25;1761217;80;21331;-58
2021/03/19 14:13:47;;;;;;;7.42;4.55;;;;;;;2.42;100.00;100447.32;1760824;81;21605;-57
2021/03/19 14:16:48;;;;;;;17.73;5.17;;;;;;;2.48;100.00;100443.20;1766300;79;21147;-57
2021/03/19 14:19:51;;;;;;;1.55;1.45;;;;;;;2.49;100.00;100446.72;1773895;80;21277;-58
2021/03/19 14:22:51;;;;;;;0.93;0.80;;;;;;;2.48;100.00;100436.46;1773794;80;21159;-59
2021/03/19 14:25:52;;;;;;;0.40;0.40;;;;;;;2.48;100.00;100444.55;1759062;81;21118;-61
2021/03/19 14:28:52;;;;;;;0.65;0.65;;;;;;;2.41;100.00;100449.73;1764856;79;21111;-59
2021/03/19 14:31:54;;;;;;;0.20;0.20;;;;;;;2.28;100.00;100445.32;1792023;80;21566;-59
2021/03/19 14:34:54;;;;;;;0.05;0.05;;;;;;;2.19;100.00;100440.73;1820160;78;21208;-60
2021/03/19 14:37:55;;;;;;;0.42;0.42;;;;;;;2.18;100.00;100442.30;1786046;78;21138;-60
2021/03/19 14:40:58;;;;;;;0.15;0.15;;;;;;;2.18;100.00;100443.14;1774387;78;21506;-60
2021/03/19 14:44:00;;;;;;;0.10;0.10;;;;;;;2.19;100.00;100444.78;1785974;80;21450;-60